• Join FlightAware (Why Join?)
  • Login
  • US Flag 
02:35PM EST


 

Airport Tracker/Info


-or-


 

Live Flight TrackerFlight Track Log ✈ UAL5900 ✈ 26-Apr-2013 ✈ KTVC - KORD

Flight Track Log - Related Links

Times and Time Zones

All times are in EDT time to prevent confusion due to time zone crossing. See the UAL5900 flight status page for this flight to view local times or setup timezone preferences in your user account.

Time Position Orientation Groundspeed Altitude Reporting Facility
EDT Latitude Longitude Course Direction KTS MPH feet Rate Location/Type
03:37PM 44.7461 -85.6286 190° South 151 174 2,400  Level Minneapolis Center
03:38PM 44.7067 -85.6617 211° Southwest 217 250 4,200 2,220 Climbing Minneapolis Center
03:39PM 44.6308 -85.6725 186° South 223 257 7,000 2,520 Climbing Minneapolis Center
03:40PM 44.4884 -85.5825 187° South  Level FlightAware Approximate
03:40PM 44.5594 -85.6828 186° South 244 281 9,500  Level Minneapolis Center
03:41PM 44.4271 -85.5932 190° South  Level FlightAware Approximate
03:41PM 44.4850 -85.6928 185° South 261 300 11,600  Level Minneapolis Center
03:42PM 44.3662 -85.6085 190° South  Level FlightAware Approximate
03:42PM 44.4042 -85.7042 186° South 284 327 12,800  Level Minneapolis Center
03:43PM 44.3111 -85.7169 186° South 319 367 13,900 1,020 Climbing Minneapolis Center
03:44PM 44.2114 -85.7294 185° South 348 400 15,000 1,020 Climbing Minneapolis Center
03:45PM 44.1083 -85.7436 186° South 364 419 16,100 1,140 Climbing Minneapolis Center
03:46PM 44.0003 -85.7586 186° South 381 438 17,400 1,200 Climbing Minneapolis Center
03:47PM 43.8722 -85.7742 185° South 386 444 18,600 1,020 Climbing Minneapolis Center
03:48PM 43.7636 -85.7892 186° South 389 448 19,800 1,740 Climbing Minneapolis Center
03:49PM 43.6364 -85.8125 188° South 388 447 22,600 1,980 Climbing Minneapolis Center
03:50PM 43.5383 -85.8389 191° South 375 432 24,000 660 Climbing Minneapolis Center
03:52PM 43.4386 -85.8642 190° South 368 423 24,000  Level Minneapolis Center
03:52PM 43.3356 -85.8903 190° South 374 430 24,000  Level Chicago Center
03:53PM 43.2356 -85.9158 191° South 368 423 24,000 -660 Level Chicago Center
03:54PM 43.1356 -85.9406 190° South 366 421 22,700 -1,320 Descending Chicago Center
03:55PM 43.0414 -85.9633 190° South 356 410 21,300 -1,320 Descending Chicago Center
03:57PM 42.9361 -85.9647 181° South 347 399 20,000 -660 Descending Chicago Center
03:58PM 42.8442 -85.9694 182° South 334 384 20,000  Level Chicago Center
03:59PM 42.7500 -85.9725 181° South 337 388 20,000  Level Chicago Center
04:00PM 42.6556 -85.9892 187° South 344 396 20,000  Level Chicago Center
04:01PM 42.6242 -86.1039 250° West 336 387 20,000  Level Chicago Center
04:02PM 42.6069 -86.2711 262° West 366 421 20,000  Level Chicago Center
04:03PM 42.5925 -86.4086 262° West 367 422 20,000 -900 Level Chicago Center
04:04PM 42.5794 -86.5461 263° West 366 421 18,200 -1,680 Descending Chicago Center
04:05PM 42.5653 -86.6872 262° West 363 418 16,600 -1,500 Descending Chicago Center
04:06PM 42.5436 -86.7989 255° West 335 386 15,200 -1,560 Descending Chicago Center
04:07PM 42.5181 -86.8986 251° West 293 337 13,400 -1,980 Descending Chicago Center
04:08PM 42.5083 -87.0164 264° West 266 306 11,200 -1,980 Descending Chicago Center
04:09PM 42.4781 -87.1019 244° Southwest 257 296 9,300 -1,080 Descending Chicago Center
04:10PM 42.4481 -87.1850 244° Southwest 249 287 9,000 -780 Descending Chicago Center
04:11PM 42.4181 -87.2658 243° Southwest 245 282 7,700 -1,020 Descending Chicago Center
04:12PM 42.3914 -87.3408 244° Southwest 229 264 7,000 -360 Descending Chicago Center
04:13PM 42.3719 -87.4139 250° West 204 235 7,000  Level Chicago Center
04:14PM 42.3508 -87.4881 249° West 185 213 7,000  Level Chicago Center
04:15PM 42.3319 -87.5403 244° Southwest 165 190 7,000  Level Chicago Center
04:16PM 42.2942 -87.5728 212° Southwest 169 194 7,000  Level Chicago Center
04:17PM 42.2564 -87.6075 214° Southwest 166 191 7,000 -120 Level Chicago Center
04:18PM 42.2250 -87.6464 223° Southwest 156 180 6,800 -720 Descending Chicago Center
04:19PM 42.1850 -87.6911 220° Southwest 156 180 5,600 -1,020 Descending Chicago Center
04:20PM 42.1525 -87.7256 218° Southwest 152 175 4,800 -900 Descending Chicago Center
04:21PM 42.1167 -87.7667 220° Southwest 169 194 4,000 -1,020 Descending Chicago TRACON
04:22PM 42.0833 -87.8000 217° Southwest 161 185 3,000 -1,020 Descending Chicago TRACON